Time;durP1;ratioP1;P1;durP2;ratioP2;P2;SDS_P1;SDS_P2;PMS_P1;PMS_P2;Temp;Humidity;BMP_temperature;BMP_pressure;BME280_temperature;BME280_humidity;BME280_pressure;Samples;Min_cycle;Max_cycle;Signal;HPM_P1;HPM_P2
2021/03/14 00:00:17;;;;;;;2.20;0.67;;;;;;;4.01;100.00;95140.59;5037968;28;20248;-72
2021/03/14 00:02:43;;;;;;;0.80;0.73;;;;;;;4.02;100.00;95130.03;5038694;28;20304;-71
2021/03/14 00:05:10;;;;;;;1.00;0.80;;;;;;;4.11;100.00;95131.63;5036933;28;20224;-72
2021/03/14 00:07:36;;;;;;;1.43;0.80;;;;;;;4.03;100.00;95131.63;5038875;28;20247;-72
2021/03/14 00:10:03;;;;;;;1.60;0.90;;;;;;;4.09;100.00;95127.56;5038031;28;20212;-72
2021/03/14 00:12:29;;;;;;;2.53;1.40;;;;;;;4.15;100.00;95119.91;5037987;28;20197;-72
2021/03/14 00:14:55;;;;;;;2.17;1.33;;;;;;;4.15;100.00;95127.72;5037761;28;20340;-72
2021/03/14 00:17:21;;;;;;;5.03;1.70;;;;;;;4.13;100.00;95118.44;5038255;28;20224;-73
2021/03/14 00:19:47;;;;;;;3.03;1.30;;;;;;;4.16;100.00;95118.91;5038266;28;20296;-73
2021/03/14 00:22:13;;;;;;;1.37;1.00;;;;;;;4.21;100.00;95110.59;5037262;28;20288;-73
2021/03/14 00:24:39;;;;;;;2.70;1.30;;;;;;;4.21;100.00;95121.81;5038806;28;20335;-73
2021/03/14 00:27:08;;;;;;;1.77;0.77;;;;;;;4.27;100.00;95134.19;5038099;28;20232;-73
2021/03/14 00:29:34;;;;;;;5.60;2.00;;;;;;;4.25;100.00;95125.72;5038601;28;20198;-73
2021/03/14 00:32:02;;;;;;;2.60;1.07;;;;;;;4.25;100.00;95126.56;5038843;28;20212;-73
2021/03/14 00:34:28;;;;;;;2.80;0.73;;;;;;;4.21;100.00;95137.47;5038642;28;20221;-73
2021/03/14 00:36:54;;;;;;;3.33;0.80;;;;;;;4.22;100.00;95133.09;5037460;28;20262;-73
2021/03/14 00:39:20;;;;;;;4.63;1.50;;;;;;;4.23;100.00;95135.53;5038302;28;20213;-73
2021/03/14 00:41:46;;;;;;;2.47;0.70;;;;;;;4.28;100.00;95141.06;5039796;28;20215;-73
2021/03/14 00:44:13;;;;;;;4.83;0.93;;;;;;;4.23;100.00;95138.13;5038511;28;20724;-73
2021/03/14 00:46:39;;;;;;;1.50;0.67;;;;;;;4.27;100.00;95137.63;5037948;28;20201;-73
2021/03/14 00:49:05;;;;;;;3.53;1.20;;;;;;;4.23;100.00;95141.53;5039063;28;20243;-73
2021/03/14 00:51:31;;;;;;;2.87;0.83;;;;;;;4.22;100.00;95141.72;5038934;28;20216;-73
2021/03/14 00:53:58;;;;;;;1.47;0.63;;;;;;;4.23;100.00;95145.94;5037758;28;20232;-73
2021/03/14 00:56:25;;;;;;;1.63;0.80;;;;;;;4.24;100.00;95142.38;5038022;28;20212;-73
2021/03/14 00:58:51;;;;;;;2.10;0.70;;;;;;;4.23;100.00;95135.53;5038807;28;20209;-73
2021/03/14 01:01:17;;;;;;;1.00;0.60;;;;;;;4.27;100.00;95129.00;5038628;28;21084;-73
2021/03/14 01:03:44;;;;;;;1.83;0.70;;;;;;;4.24;100.00;95113.69;5038992;28;20221;-74
2021/03/14 01:06:10;;;;;;;1.03;0.70;;;;;;;4.22;100.00;95115.63;5038057;28;20291;-73
2021/03/14 01:08:36;;;;;;;0.63;0.60;;;;;;;4.23;100.00;95119.88;5037722;28;20668;-74
2021/03/14 01:11:02;;;;;;;1.13;0.47;;;;;;;4.20;100.00;95109.78;5037977;28;20301;-73
2021/03/14 01:13:28;;;;;;;1.87;0.60;;;;;;;4.19;100.00;95095.13;5037914;28;20867;-73
2021/03/14 01:15:54;;;;;;;1.17;0.40;;;;;;;4.12;100.00;95096.75;5037244;28;20295;-73
2021/03/14 01:18:21;;;;;;;1.03;0.60;;;;;;;4.19;100.00;95096.91;5037602;28;20684;-73
2021/03/14 01:20:47;;;;;;;0.50;0.50;;;;;;;4.13;100.00;95108.00;5038104;28;20212;-73
2021/03/14 01:23:13;;;;;;;1.37;0.40;;;;;;;4.09;100.00;95112.72;5037035;28;21063;-73
2021/03/14 01:25:39;;;;;;;0.63;0.50;;;;;;;4.11;100.00;95118.59;5036738;28;20316;-73
2021/03/14 01:28:05;;;;;;;0.63;0.40;;;;;;;4.12;100.00;95116.81;5037795;28;20656;-73
2021/03/14 01:30:32;;;;;;;0.77;0.40;;;;;;;4.15;100.00;95117.28;5038066;28;20205;-73
2021/03/14 01:32:58;;;;;;;1.33;0.40;;;;;;;4.16;100.00;95113.69;5037907;28;20314;-73
2021/03/14 01:35:25;;;;;;;1.17;0.40;;;;;;;4.19;100.00;95121.19;5037296;28;21424;-73
2021/03/14 01:37:51;;;;;;;0.73;0.50;;;;;;;4.13;100.00;95119.22;5037260;28;20205;-73
2021/03/14 01:40:19;;;;;;;0.60;0.50;;;;;;;4.21;100.00;95124.44;5037350;28;20212;-73
2021/03/14 01:42:45;;;;;;;0.80;0.60;;;;;;;4.17;100.00;95123.13;5036964;28;20201;-73
2021/03/14 01:45:13;;;;;;;0.97;0.50;;;;;;;4.20;100.00;95129.81;5036539;28;20252;-73
2021/03/14 01:47:40;;;;;;;1.60;0.50;;;;;;;4.17;100.00;95130.16;5036939;28;20205;-73
2021/03/14 01:50:08;;;;;;;1.37;0.40;;;;;;;4.17;100.00;95122.34;5037202;28;20224;-73
2021/03/14 01:52:36;;;;;;;0.43;0.40;;;;;;;4.15;100.00;95126.88;5037165;28;20235;-72
2021/03/14 01:55:05;;;;;;;1.23;0.93;;;;;;;4.11;100.00;95120.38;5037033;28;20225;-73
2021/03/14 01:57:31;;;;;;;0.53;0.37;;;;;;;4.10;100.00;95109.16;5036999;28;20204;-73
2021/03/14 01:59:58;;;;;;;0.87;0.40;;;;;;;4.11;100.00;95107.34;5037203;28;20678;-72
2021/03/14 02:02:24;;;;;;;0.40;0.40;;;;;;;4.07;100.00;95114.66;5035544;28;20809;-73
2021/03/14 02:04:50;;;;;;;2.10;0.50;;;;;;;4.10;100.00;95119.56;5036544;28;20590;-73
2021/03/14 02:07:16;;;;;;;0.50;0.40;;;;;;;4.08;100.00;95118.91;5035776;28;20323;-72
2021/03/14 02:09:43;;;;;;;1.00;0.30;;;;;;;4.12;100.00;95117.59;5036084;28;20229;-72
2021/03/14 02:12:13;;;;;;;0.60;0.40;;;;;;;4.09;100.00;95110.13;5037390;28;20216;-72
2021/03/14 02:14:40;;;;;;;0.80;0.37;;;;;;;4.07;100.00;95119.88;5037016;28;20213;-72
2021/03/14 02:17:09;;;;;;;0.43;0.40;;;;;;;4.12;100.00;95122.81;5036896;28;20662;-72
2021/03/14 02:19:39;;;;;;;1.60;0.30;;;;;;;4.15;100.00;95134.69;5036778;28;20289;-73
2021/03/14 02:22:05;;;;;;;0.50;0.40;;;;;;;4.13;100.00;95131.47;5036839;28;20216;-72
2021/03/14 02:24:39;;;;;;;0.97;0.50;;;;;;;4.15;100.00;95129.50;5037100;28;20238;-73
2021/03/14 02:27:07;;;;;;;0.77;0.40;;;;;;;4.15;100.00;95143.34;5036517;28;20216;-72
2021/03/14 02:29:35;;;;;;;1.23;0.60;;;;;;;4.14;100.00;95154.75;5036679;28;20205;-72
2021/03/14 02:32:04;;;;;;;0.73;0.47;;;;;;;4.03;100.00;95160.28;5037090;28;20201;-72
2021/03/14 02:34:33;;;;;;;0.47;0.47;;;;;;;3.79;100.00;95177.72;5037009;28;20228;-73
2021/03/14 02:37:01;;;;;;;0.30;0.30;;;;;;;3.57;100.00;95178.34;5036099;28;20688;-73
2021/03/14 02:39:28;;;;;;;0.40;0.40;;;;;;;3.36;100.00;95171.94;5036967;28;20266;-73
2021/03/14 02:41:57;;;;;;;0.40;0.40;;;;;;;3.30;100.00;95154.38;5036656;28;20204;-72
2021/03/14 02:44:27;;;;;;;0.67;0.43;;;;;;;3.26;100.00;95159.09;5036416;28;20233;-72
2021/03/14 02:46:53;;;;;;;1.90;0.70;;;;;;;3.27;100.00;95165.94;5035778;28;20212;-72
2021/03/14 02:49:20;;;;;;;0.93;0.60;;;;;;;3.23;100.00;95163.78;5036762;28;20204;-72
2021/03/14 02:51:47;;;;;;;0.70;0.47;;;;;;;3.21;100.00;95176.97;5036712;28;20205;-72
2021/03/14 02:54:16;;;;;;;1.97;1.00;;;;;;;3.16;100.00;95181.81;5036126;28;20723;-73
2021/03/14 02:56:43;;;;;;;2.03;0.50;;;;;;;3.20;100.00;95197.94;5036327;28;20229;-73
2021/03/14 02:59:10;;;;;;;0.30;0.30;;;;;;;3.19;100.00;95185.91;5036485;28;20271;-73
2021/03/14 03:01:37;;;;;;;0.40;0.33;;;;;;;3.17;100.00;95206.88;5036131;28;20193;-72
2021/03/14 03:04:04;;;;;;;0.30;0.30;;;;;;;3.16;100.00;95215.66;5036212;28;20228;-73
2021/03/14 03:06:31;;;;;;;0.40;0.40;;;;;;;3.12;100.00;95216.16;5036912;28;20197;-72
2021/03/14 03:08:57;;;;;;;0.63;0.47;;;;;;;3.08;100.00;95227.81;5035848;28;20209;-72
2021/03/14 03:11:24;;;;;;;0.90;0.50;;;;;;;3.00;100.00;95235.59;5035814;28;20706;-71
2021/03/14 03:13:52;;;;;;;0.40;0.40;;;;;;;2.99;100.00;95233.16;5036856;28;20228;-71
2021/03/14 03:16:21;;;;;;;0.63;0.50;;;;;;;2.99;100.00;95215.75;5035782;28;20205;-71
2021/03/14 03:18:50;;;;;;;0.53;0.43;;;;;;;2.97;100.00;95204.69;5043609;28;20200;-71
2021/03/14 03:21:16;;;;;;;1.93;0.60;;;;;;;2.95;100.00;95216.22;5042667;28;20208;-71
2021/03/14 03:23:43;;;;;;;0.60;0.60;;;;;;;2.94;100.00;95215.41;5042765;28;20239;-71
2021/03/14 03:26:09;;;;;;;0.63;0.50;;;;;;;2.90;100.00;95240.09;5042477;28;20238;-71
2021/03/14 03:28:35;;;;;;;0.60;0.50;;;;;;;2.91;100.00;95249.53;5042611;28;20212;-71
2021/03/14 03:31:01;;;;;;;0.93;0.40;;;;;;;2.92;100.00;95258.16;5042866;28;20211;-71
2021/03/14 03:33:28;;;;;;;3.63;1.10;;;;;;;2.93;100.00;95259.78;5042978;28;20221;-71
2021/03/14 03:35:55;;;;;;;0.43;0.40;;;;;;;2.97;100.00;95267.13;5042214;28;20199;-71
2021/03/14 03:38:21;;;;;;;1.10;0.47;;;;;;;2.95;100.00;95253.44;5042490;28;20209;-70
2021/03/14 03:40:47;;;;;;;0.30;0.30;;;;;;;3.00;100.00;95261.59;5042996;28;20205;-71
2021/03/14 03:43:18;;;;;;;0.40;0.40;;;;;;;3.01;100.00;95263.25;5041321;28;20216;-71
2021/03/14 03:45:48;;;;;;;0.30;0.30;;;;;;;2.96;100.00;95281.09;5042010;28;20220;-71
2021/03/14 03:48:18;;;;;;;0.53;0.30;;;;;;;2.93;100.00;95285.78;5042820;28;20663;-71
2021/03/14 03:50:47;;;;;;;0.73;0.40;;;;;;;2.91;100.00;95298.97;5042912;28;20307;-70
2021/03/14 03:53:14;;;;;;;0.33;0.33;;;;;;;2.87;100.00;95302.84;5042227;28;20801;-71
2021/03/14 03:55:43;;;;;;;0.30;0.30;;;;;;;2.92;100.00;95303.19;5042346;28;20202;-71
2021/03/14 03:58:10;;;;;;;0.30;0.30;;;;;;;2.85;100.00;95293.56;5042810;28;20208;-71
2021/03/14 04:00:37;;;;;;;0.43;0.30;;;;;;;2.76;100.00;95308.31;5042391;28;20199;-70
2021/03/14 04:03:03;;;;;;;0.30;0.30;;;;;;;2.72;100.00;95306.97;5043104;28;20217;-72
2021/03/14 04:05:30;;;;;;;0.30;0.30;;;;;;;2.68;100.00;95313.44;5041780;28;20231;-71
2021/03/14 04:07:57;;;;;;;2.87;0.60;;;;;;;2.73;100.00;95331.19;5042352;28;20212;-71
2021/03/14 04:10:26;;;;;;;0.33;0.33;;;;;;;2.67;100.00;95327.44;5042463;28;20221;-71
2021/03/14 04:12:54;;;;;;;0.70;0.40;;;;;;;2.66;100.00;95328.38;5042930;28;20738;-71
2021/03/14 04:15:23;;;;;;;0.97;0.40;;;;;;;2.70;100.00;95342.72;5041484;28;20228;-71
2021/03/14 04:17:49;;;;;;;1.27;0.43;;;;;;;2.66;100.00;95337.97;5042165;28;20258;-71
2021/03/14 04:20:20;;;;;;;0.77;0.43;;;;;;;2.70;100.00;95350.53;5042679;28;20212;-71
2021/03/14 04:22:49;;;;;;;0.40;0.40;;;;;;;2.65;100.00;95355.34;5043301;28;20227;-71
2021/03/14 04:25:16;;;;;;;0.40;0.40;;;;;;;2.64;100.00;95355.50;5041736;28;20234;-71
2021/03/14 04:27:45;;;;;;;0.30;0.30;;;;;;;2.64;100.00;95364.13;5042379;28;20205;-70
2021/03/14 04:30:13;;;;;;;0.37;0.30;;;;;;;2.63;100.00;95375.47;5038486;28;20655;-71
2021/03/14 04:32:39;;;;;;;0.50;0.40;;;;;;;2.67;100.00;95370.81;5039202;28;20199;-71
2021/03/14 04:35:07;;;;;;;0.53;0.37;;;;;;;2.68;100.00;95375.03;5038957;28;20227;-71
2021/03/14 04:37:34;;;;;;;0.50;0.50;;;;;;;2.63;100.00;95372.06;5038923;28;21474;-71
2021/03/14 04:40:02;;;;;;;1.50;0.57;;;;;;;2.63;100.00;95377.28;5039174;28;20335;-70
2021/03/14 04:42:30;;;;;;;0.83;0.60;;;;;;;2.66;100.00;95377.81;5038737;28;20201;-71
2021/03/14 04:44:57;;;;;;;2.00;0.80;;;;;;;2.61;100.00;95382.63;5038716;28;21340;-72
2021/03/14 04:47:23;;;;;;;1.00;0.90;;;;;;;2.65;100.00;95381.38;5038097;28;20213;-71
2021/03/14 04:49:49;;;;;;;2.10;1.10;;;;;;;2.67;100.00;95392.44;5039118;28;20215;-71
2021/03/14 04:52:18;;;;;;;1.23;0.80;;;;;;;2.66;100.00;95393.41;5038615;28;20212;-71
2021/03/14 04:54:47;;;;;;;2.23;1.20;;;;;;;2.66;100.00;95393.41;5038517;28;20883;-72
2021/03/14 04:57:13;;;;;;;1.57;0.90;;;;;;;2.65;100.00;95403.97;5038157;28;20212;-71
2021/03/14 04:59:41;;;;;;;2.03;1.10;;;;;;;2.66;100.00;95405.56;5038829;28;20212;-71
2021/03/14 05:02:09;;;;;;;1.87;1.13;;;;;;;2.61;100.00;95419.03;5038459;28;20197;-71
2021/03/14 05:04:36;;;;;;;2.83;1.37;;;;;;;2.59;100.00;95420.97;5038154;28;20221;-71
2021/03/14 05:07:02;;;;;;;2.57;1.43;;;;;;;2.56;100.00;95416.06;5038207;28;20208;-71
2021/03/14 05:09:29;;;;;;;1.90;0.90;;;;;;;2.53;100.00;95428.53;5038359;28;20220;-71
2021/03/14 05:11:55;;;;;;;5.00;1.70;;;;;;;2.52;100.00;95430.34;5038775;28;21012;-71
2021/03/14 05:14:22;;;;;;;3.77;1.30;;;;;;;2.49;100.00;95440.19;5037666;28;20259;-71
2021/03/14 05:16:49;;;;;;;5.00;1.37;;;;;;;2.49;100.00;95448.00;5037587;28;20262;-71
2021/03/14 05:19:17;;;;;;;3.90;1.40;;;;;;;2.46;100.00;95443.91;5038427;28;20215;-71
2021/03/14 05:21:43;;;;;;;4.43;1.70;;;;;;;2.48;100.00;95449.78;5038011;28;20668;-71
2021/03/14 05:24:11;;;;;;;2.60;1.43;;;;;;;2.47;100.00;95455.94;5037987;28;20783;-71
2021/03/14 05:26:40;;;;;;;4.07;1.30;;;;;;;2.50;100.00;95458.25;5037302;28;20229;-71
2021/03/14 05:29:08;;;;;;;1.77;1.00;;;;;;;2.50;100.00;95460.84;5038509;28;20660;-71
2021/03/14 05:31:36;;;;;;;1.57;0.80;;;;;;;2.40;100.00;95480.88;5038861;28;20204;-71
2021/03/14 05:34:05;;;;;;;1.70;0.87;;;;;;;2.36;100.00;95470.94;5037981;28;20314;-70
2021/03/14 05:36:32;;;;;;;1.37;0.83;;;;;;;2.34;100.00;95478.06;5036889;28;20200;-72
2021/03/14 05:38:59;;;;;;;1.17;0.90;;;;;;;2.32;100.00;95481.75;5038322;28;20231;-71
2021/03/14 05:41:26;;;;;;;2.43;1.00;;;;;;;2.26;100.00;95479.75;5037548;28;20205;-71
2021/03/14 05:43:52;;;;;;;1.73;0.83;;;;;;;2.30;100.00;95481.09;5037038;28;20225;-71
2021/03/14 05:46:22;;;;;;;2.00;1.03;;;;;;;2.28;100.00;95496.00;5036708;28;20252;-72
2021/03/14 05:48:48;;;;;;;0.70;0.70;;;;;;;2.26;100.00;95495.34;5038145;28;20208;-74
2021/03/14 05:51:20;;;;;;;0.70;0.63;;;;;;;2.29;100.00;95502.84;5037757;28;20208;-73
2021/03/14 05:53:50;;;;;;;0.60;0.60;;;;;;;2.31;100.00;95516.53;5037648;28;20740;-71
2021/03/14 05:56:17;;;;;;;1.40;0.93;;;;;;;2.34;100.00;95513.63;5037051;28;20679;-71
2021/03/14 05:58:45;;;;;;;1.97;1.10;;;;;;;2.31;100.00;95525.13;5037720;28;20204;-74
2021/03/14 06:01:15;;;;;;;0.70;0.70;;;;;;;2.26;100.00;95522.16;5037598;28;20205;-71
2021/03/14 06:03:41;;;;;;;2.10;1.00;;;;;;;2.33;100.00;95522.38;5037415;28;20269;-72
2021/03/14 06:06:09;;;;;;;2.13;1.37;;;;;;;2.35;100.00;95529.09;5036619;28;20235;-72
2021/03/14 06:08:35;;;;;;;1.97;0.70;;;;;;;2.27;100.00;95535.97;5037513;28;20205;-72
2021/03/14 06:11:03;;;;;;;1.93;1.40;;;;;;;2.23;100.00;95539.81;5037407;28;20729;-71
2021/03/14 06:13:30;;;;;;;3.67;1.30;;;;;;;2.27;100.00;95543.78;5037261;28;20229;-70
2021/03/14 06:15:56;;;;;;;3.07;1.57;;;;;;;2.16;100.00;95555.16;5036458;28;20204;-71
2021/03/14 06:18:23;;;;;;;2.30;1.37;;;;;;;2.12;100.00;95563.41;5037173;28;20295;-71
2021/03/14 06:20:49;;;;;;;3.27;2.07;;;;;;;2.06;100.00;95566.56;5037333;28;20203;-71
2021/03/14 06:23:16;;;;;;;3.77;2.30;;;;;;;2.00;100.00;95575.75;5036847;28;20212;-71
2021/03/14 06:25:44;;;;;;;4.20;2.53;;;;;;;1.99;100.00;95584.50;5036378;28;20380;-71
2021/03/14 06:28:11;;;;;;;3.10;2.00;;;;;;;2.00;100.00;95585.31;5036795;28;20209;-71
2021/03/14 06:30:38;;;;;;;2.37;1.73;;;;;;;1.94;100.00;95584.09;5036843;28;20676;-71
2021/03/14 06:33:09;;;;;;;7.13;3.67;;;;;;;1.99;100.00;95583.69;5036753;28;20251;-71
2021/03/14 06:35:44;;;;;;;5.77;1.80;;;;;;;2.02;100.00;95588.59;5035925;28;20204;-71
2021/03/14 06:38:25;;;;;;;2.90;1.77;;;;;;;1.97;100.00;95601.19;5036959;28;20211;-71
2021/03/14 06:40:53;;;;;;;2.47;1.50;;;;;;;2.04;100.00;95610.06;5036638;28;20201;-71
2021/03/14 06:43:20;;;;;;;2.30;1.37;;;;;;;2.00;100.00;95606.09;5036985;28;20204;-71
2021/03/14 06:45:46;;;;;;;1.57;1.10;;;;;;;1.99;100.00;95618.25;5036123;28;20235;-71
2021/03/14 06:48:23;;;;;;;2.70;1.53;;;;;;;1.98;100.00;95615.81;5036283;28;20211;-72
2021/03/14 06:50:49;;;;;;;1.20;0.90;;;;;;;1.87;100.00;95613.34;5037072;28;20261;-71
2021/03/14 06:53:17;;;;;;;1.33;1.10;;;;;;;1.85;100.00;95623.09;5036698;28;20218;-73
2021/03/14 06:55:45;;;;;;;0.77;0.77;;;;;;;1.88;100.00;95634.03;5035610;28;20201;-71
2021/03/14 06:58:23;;;;;;;2.47;1.10;;;;;;;1.77;100.00;95630.75;5036729;28;20215;-71
2021/03/14 07:01:14;;;;;;;2.47;1.20;;;;;;;1.85;100.00;95646.47;5036741;28;20230;-71
2021/03/14 07:03:42;;;;;;;3.33;1.23;;;;;;;1.93;100.00;95634.41;5036436;28;20279;-71
2021/03/14 07:06:19;;;;;;;1.13;0.90;;;;;;;2.00;100.00;95637.28;5035103;28;20238;-71
2021/03/14 07:08:47;;;;;;;1.90;1.50;;;;;;;2.04;100.00;95644.66;5036090;28;20208;-71
2021/03/14 07:11:13;;;;;;;9.27;3.27;;;;;;;2.09;100.00;95647.66;5037701;28;20209;-72
2021/03/14 07:13:40;;;;;;;3.80;2.20;;;;;;;2.18;100.00;95653.78;5036118;28;20282;-72
2021/03/14 07:16:07;;;;;;;4.73;1.37;;;;;;;2.31;100.00;95651.69;5035417;28;20201;-71
2021/03/14 07:18:34;;;;;;;2.10;1.30;;;;;;;2.34;100.00;95664.41;5036546;28;20215;-71
2021/03/14 07:21:00;;;;;;;7.57;3.17;;;;;;;2.30;100.00;95665.66;5036080;28;20204;-71
2021/03/14 07:23:33;;;;;;;8.43;3.30;;;;;;;2.44;100.00;95674.63;5036372;28;20204;-71
2021/03/14 07:26:00;;;;;;;5.07;2.67;;;;;;;2.43;100.00;95677.34;5035738;28;20267;-71
2021/03/14 07:28:26;;;;;;;3.97;2.07;;;;;;;2.50;100.00;95676.66;5036689;28;20211;-71
2021/03/14 07:30:54;;;;;;;4.20;1.80;;;;;;;2.61;100.00;95679.09;5036261;28;20209;-71
2021/03/14 07:33:21;;;;;;;3.90;2.20;;;;;;;2.66;100.00;95689.88;5036497;28;20208;-71
2021/03/14 07:35:48;;;;;;;3.03;2.03;;;;;;;2.80;100.00;95692.03;5035575;28;20197;-71
2021/03/14 07:38:14;;;;;;;4.93;2.80;;;;;;;2.75;100.00;95704.63;5036443;28;20219;-71
2021/03/14 07:40:41;;;;;;;7.10;2.73;;;;;;;2.89;100.00;95703.31;5036268;28;20204;-71
2021/03/14 07:43:07;;;;;;;6.20;2.63;;;;;;;2.78;100.00;95706.13;5037562;28;20209;-71
2021/03/14 07:45:33;;;;;;;4.43;2.60;;;;;;;2.88;100.00;95718.13;5034626;28;20229;-70
2021/03/14 07:48:01;;;;;;;4.13;2.23;;;;;;;2.90;100.00;95717.97;5034562;28;20212;-71
2021/03/14 07:50:29;;;;;;;3.60;2.03;;;;;;;2.98;100.00;95716.31;5035139;28;20204;-71
2021/03/14 07:53:01;;;;;;;3.97;2.27;;;;;;;3.07;100.00;95718.84;5036097;28;20212;-71
2021/03/14 07:55:27;;;;;;;2.83;1.63;;;;;;;3.19;100.00;95725.50;5034740;28;20224;-71
2021/03/14 07:57:54;;;;;;;1.53;1.27;;;;;;;3.20;100.00;95732.34;5035216;28;20251;-71
2021/03/14 08:00:30;;;;;;;1.50;1.00;;;;;;;3.29;100.00;95738.47;5035440;28;20205;-70
2021/03/14 08:02:57;;;;;;;4.03;1.70;;;;;;;3.17;100.00;95750.03;5035985;28;20219;-70
2021/03/14 08:05:47;;;;;;;3.17;1.40;;;;;;;3.12;100.00;95753.09;5038400;28;20951;-71
2021/03/14 08:08:46;;;;;;;3.23;1.30;;;;;;;3.12;100.00;95757.47;5039771;28;20204;-71
2021/03/14 08:11:28;;;;;;;2.40;1.10;;;;;;;3.18;100.00;95769.91;5038232;28;20209;-71
2021/03/14 08:13:55;;;;;;;2.53;1.20;;;;;;;3.24;100.00;95766.72;5039086;28;21268;-71
2021/03/14 08:16:21;;;;;;;4.83;1.83;;;;;;;3.36;100.00;95770.78;5039107;28;20209;-71
2021/03/14 08:18:49;;;;;;;3.33;1.33;;;;;;;3.44;100.00;95771.69;5037968;28;20197;-71
2021/03/14 08:21:39;;;;;;;4.37;1.17;;;;;;;3.64;100.00;95781.84;5038936;28;20212;-71
2021/03/14 08:24:06;;;;;;;2.17;1.30;;;;;;;3.62;100.00;95778.56;5039251;28;20221;-71
2021/03/14 08:26:34;;;;;;;2.37;1.13;;;;;;;3.51;100.00;95783.16;5038822;28;20231;-71
2021/03/14 08:29:02;;;;;;;7.73;2.70;;;;;;;3.58;100.00;95796.41;5039118;28;20204;-71
2021/03/14 08:31:43;;;;;;;6.47;2.07;;;;;;;3.73;100.00;95799.22;5038869;28;20218;-71
2021/03/14 08:34:10;;;;;;;4.73;1.90;;;;;;;3.75;100.00;95786.84;5039273;28;20225;-71
2021/03/14 08:36:39;;;;;;;1.73;1.10;;;;;;;3.81;100.00;95788.88;5037977;28;20204;-71
2021/03/14 08:39:07;;;;;;;6.63;2.53;;;;;;;3.93;100.00;95798.09;5039274;28;20200;-70
2021/03/14 08:41:41;;;;;;;6.80;2.73;;;;;;;3.99;100.00;95805.34;5039366;28;20355;-70
2021/03/14 08:44:12;;;;;;;8.43;2.40;;;;;;;4.02;100.00;95797.25;5037905;28;20224;-71
2021/03/14 08:47:08;;;;;;;4.13;1.23;;;;;;;4.05;99.37;95799.56;5036858;28;20225;-71
2021/03/14 08:49:40;;;;;;;7.27;3.20;;;;;;;4.19;100.00;95798.19;5038172;28;20209;-71
2021/03/14 08:52:07;;;;;;;3.37;1.17;;;;;;;4.22;98.59;95798.72;5038039;28;20212;-72
2021/03/14 08:54:36;;;;;;;3.43;1.40;;;;;;;4.36;99.69;95779.94;5037494;28;20231;-71
2021/03/14 08:57:05;;;;;;;5.37;0.97;;;;;;;4.22;96.02;95791.72;5038389;28;20278;-71
2021/03/14 08:59:31;;;;;;;2.03;1.10;;;;;;;4.26;97.67;95790.47;5037546;28;20221;-71
2021/03/14 09:01:59;;;;;;;2.07;0.90;;;;;;;4.16;94.00;95781.06;5037794;28;20703;-71
2021/03/14 09:04:28;;;;;;;4.90;0.80;;;;;;;4.30;95.19;95788.38;5037566;28;20631;-71
2021/03/14 09:07:01;;;;;;;3.83;1.00;;;;;;;4.41;95.58;95791.56;5036756;28;20750;-71
2021/03/14 09:09:27;;;;;;;4.87;1.40;;;;;;;4.39;95.01;95788.28;5037881;28;20216;-71
2021/03/14 09:11:55;;;;;;;4.23;0.80;;;;;;;4.45;90.76;95779.84;5038577;28;20213;-72
2021/03/14 09:14:27;;;;;;;2.57;0.90;;;;;;;4.45;90.61;95792.88;5037992;28;21303;-71
2021/03/14 09:16:55;;;;;;;8.77;1.77;;;;;;;4.48;89.78;95791.78;5038072;28;20867;-71
2021/03/14 09:19:36;;;;;;;3.83;1.70;;;;;;;4.58;91.33;95788.13;5037567;28;20201;-72
2021/03/14 09:22:05;;;;;;;3.90;1.10;;;;;;;4.68;88.94;95781.00;5037005;28;20209;-71
2021/03/14 09:24:35;;;;;;;1.97;1.10;;;;;;;4.94;91.86;95779.25;5036946;28;20217;-71
2021/03/14 09:27:04;;;;;;;1.37;0.67;;;;;;;4.82;85.97;95791.72;5036418;28;20282;-71
2021/03/14 09:29:36;;;;;;;1.80;0.63;;;;;;;4.88;87.65;95795.50;5037198;28;20578;-71
2021/03/14 09:32:04;;;;;;;3.57;0.93;;;;;;;5.00;88.45;95779.44;5036855;28;20201;-71
2021/03/14 09:34:31;;;;;;;2.40;1.20;;;;;;;5.25;90.11;95783.00;5036121;28;20372;-70
2021/03/14 09:36:57;;;;;;;13.03;1.03;;;;;;;5.17;83.90;95781.16;5035851;28;20204;-72
2021/03/14 09:39:25;;;;;;;2.93;0.93;;;;;;;4.94;82.07;95787.88;5035589;28;20689;-71
2021/03/14 09:41:51;;;;;;;6.93;0.97;;;;;;;4.77;85.33;95789.72;5036744;28;20673;-72
2021/03/14 09:44:18;;;;;;;3.90;0.70;;;;;;;4.94;85.56;95798.31;5035786;28;20221;-71
2021/03/14 09:46:55;;;;;;;1.63;0.70;;;;;;;4.97;84.44;95790.16;5035637;28;20703;-71
2021/03/14 09:49:22;;;;;;;3.00;1.03;;;;;;;4.91;81.36;95793.41;5037473;28;20275;-71
2021/03/14 09:51:53;;;;;;;2.67;0.70;;;;;;;5.14;80.38;95791.09;5037167;28;20205;-71
2021/03/14 09:54:19;;;;;;;3.33;0.93;;;;;;;5.38;81.07;95791.22;5035232;28;20726;-71
2021/03/14 09:56:53;;;;;;;4.27;1.53;;;;;;;5.40;80.02;95782.25;5034599;28;20213;-71
2021/03/14 09:59:21;;;;;;;10.80;2.90;;;;;;;5.79;81.50;95776.41;5036081;28;20205;-71
2021/03/14 10:01:48;;;;;;;8.87;3.03;;;;;;;5.68;77.09;95784.47;5035030;28;20200;-72
2021/03/14 10:04:15;;;;;;;5.83;1.30;;;;;;;5.55;74.99;95780.69;5034610;28;20804;-71
2021/03/14 10:06:43;;;;;;;1.40;0.70;;;;;;;5.98;79.40;95798.81;5035805;28;20232;-71
2021/03/14 10:09:19;;;;;;;2.57;1.47;;;;;;;6.02;78.38;95789.66;5036640;28;20220;-71
2021/03/14 10:11:46;;;;;;;2.40;0.60;;;;;;;5.77;76.69;95794.03;5037557;28;20216;-71
2021/03/14 10:14:12;;;;;;;0.60;0.50;;;;;;;5.83;75.54;95785.56;5036781;28;20243;-71
2021/03/14 10:16:40;;;;;;;3.73;1.00;;;;;;;5.82;72.26;95794.38;5037384;28;20201;-71
2021/03/14 10:19:06;;;;;;;5.07;1.20;;;;;;;5.97;74.18;95786.72;5037157;28;20896;-72
2021/03/14 10:21:33;;;;;;;6.93;0.80;;;;;;;6.21;75.39;95795.41;5036788;28;20592;-71
2021/03/14 10:24:18;;;;;;;3.20;0.70;;;;;;;6.13;71.71;95792.81;5037252;28;20221;-71
2021/03/14 10:26:55;;;;;;;0.67;0.50;;;;;;;6.03;73.29;95793.94;5036463;28;20270;-72
2021/03/14 10:29:22;;;;;;;1.17;0.60;;;;;;;5.89;72.98;95790.13;5037555;28;20196;-71
2021/03/14 10:31:49;;;;;;;2.57;0.60;;;;;;;5.92;75.64;95789.81;5037226;28;20205;-71
2021/03/14 10:34:19;;;;;;;3.77;0.80;;;;;;;5.79;76.12;95799.91;5036396;28;21090;-71
2021/03/14 10:36:47;;;;;;;2.20;0.70;;;;;;;5.58;73.40;95806.50;5035418;28;20229;-71
2021/03/14 10:39:13;;;;;;;0.70;0.50;;;;;;;5.27;72.89;95802.75;5037391;28;20263;-71
2021/03/14 10:41:41;;;;;;;3.07;0.97;;;;;;;5.21;75.01;95787.72;5037312;28;20205;-71
2021/03/14 10:44:07;;;;;;;2.90;0.70;;;;;;;5.20;77.25;95791.28;5035921;28;21365;-71
2021/03/14 10:46:35;;;;;;;2.90;0.70;;;;;;;5.47;77.54;95791.09;5033895;28;20853;-71
2021/03/14 10:49:03;;;;;;;3.97;0.70;;;;;;;5.42;76.54;95785.50;5036032;28;20197;-71
2021/03/14 10:51:31;;;;;;;4.87;1.23;;;;;;;5.50;76.90;95788.19;5032944;28;20277;-71
2021/03/14 10:54:06;;;;;;;1.70;0.83;;;;;;;5.48;74.21;95793.53;5036221;28;20298;-71
2021/03/14 10:56:34;;;;;;;1.83;1.13;;;;;;;5.58;75.27;95786.41;5035228;28;20216;-71
2021/03/14 10:59:01;;;;;;;1.57;0.77;;;;;;;5.56;74.93;95795.38;5036691;28;21033;-71
2021/03/14 11:01:31;;;;;;;4.23;0.70;;;;;;;5.41;74.37;95798.72;5036401;28;20212;-71
2021/03/14 11:04:03;;;;;;;2.60;0.97;;;;;;;5.36;74.96;95794.00;5036978;28;20656;-71
2021/03/14 11:06:29;;;;;;;1.63;0.60;;;;;;;5.24;75.49;95790.00;5036613;28;20227;-71
2021/03/14 11:08:57;;;;;;;5.40;1.10;;;;;;;5.40;78.31;95781.41;5035861;28;20215;-73
2021/03/14 11:11:36;;;;;;;1.03;0.67;;;;;;;5.20;76.44;95780.84;5036794;28;20684;-73
2021/03/14 11:14:25;;;;;;;0.30;0.30;;;;;;;5.36;82.49;95780.09;5037083;28;20224;-73
2021/03/14 11:17:06;;;;;;;2.77;1.03;;;;;;;5.45;87.27;95780.81;5036104;28;20296;-71
2021/03/14 11:19:32;;;;;;;3.40;0.87;;;;;;;5.52;82.88;95770.53;5037152;28;20208;-71
2021/03/14 11:21:59;;;;;;;6.37;0.80;;;;;;;5.37;86.56;95772.09;5036653;28;20228;-71
2021/03/14 11:24:25;;;;;;;3.77;1.20;;;;;;;5.40;89.94;95774.41;5036175;28;20236;-71
2021/03/14 11:26:52;;;;;;;2.43;0.87;;;;;;;5.35;85.33;95779.28;5035389;28;20283;-70
2021/03/14 11:29:18;;;;;;;1.87;0.90;;;;;;;5.57;79.11;95776.91;5036646;28;20205;-71
2021/03/14 11:31:44;;;;;;;1.17;0.80;;;;;;;5.84;77.41;95776.75;5036935;28;20197;-70
2021/03/14 11:34:10;;;;;;;1.30;0.77;;;;;;;6.29;78.71;95766.69;5035900;28;20236;-70
2021/03/14 11:36:36;;;;;;;3.33;1.03;;;;;;;6.19;73.28;95766.00;5035884;28;20201;-70
2021/03/14 11:39:03;;;;;;;1.53;0.80;;;;;;;6.10;73.90;95759.13;5038410;28;20209;-70
2021/03/14 11:41:31;;;;;;;1.57;0.90;;;;;;;6.11;71.11;95768.63;5039659;28;20204;-70